Webster Crossing, New York
Current Conditions -  °F | °C
As of 10:54 AM on Sunday 23 Nov 2014 (Local Time) from KDSV Reporting Station
Overcast Overcast  
Wind Chill: 50°   Ceiling: 4700
Heat Index: 50°   Visibility: 10mi
Dew Point: 36°   Wind: 9mph
Humidity: 59%   Direction: 130°SE
Pressure: 30.07"   Gusts: NA
Location:  42.6909°N, 77.5692°W
Report Text: KDSV 231554Z AUTO 13008KT 10SM FEW034 OVC047 10/02 A3007 RMK AO2 RAB34E46 SLP196 P0000 T01000022
Loading
Personal Weather Stations






























Interactive Weather Map New forecast layout! Learn more

10-Day Weather Forecast

Advertisements
Track Severe Weather on mobile